This is the latest recevied weather packets stored in our database for station/object KI4HRG. If no packets are shown the sender has not sent any weather packets the latest 10 day(s).
| Time | Temp. | Humidity | Pressure | Rain* | Wind** | Luminosity | Snow |
|---|---|---|---|---|---|---|---|
| 1787577506 | 25.56° C | 76% | 1017 hPa | 0 mm | - | 139 W/m² | - |
| 1787577203 | 25° C | 77% | 1017 hPa | 0 mm | - | 205 W/m² | - |
| 1787576899 | 25° C | 78% | 1017.1 hPa | 0 mm | - | 141 W/m² | - |
| 1787576599 | 25° C | 77% | 1017 hPa | 0 mm | - | 110 W/m² | - |
| 1787576296 | 25° C | 78% | 1017 hPa | 0 mm | - | 131 W/m² | - |
| 1787575990 | 24.44° C | 78% | 1016.8 hPa | 0 mm | - | 131 W/m² | - |
| 1787575685 | 25° C | 78% | 1016.8 hPa | 0 mm | - | 81 W/m² | - |
| 1787575381 | 25° C | 77% | 1016.8 hPa | 0 mm | - | 138 W/m² | - |
| 1787575077 | 25° C | 79% | 1016.8 hPa | 0 mm | - | 111 W/m² | - |
| 1787574771 | 24.44° C | 82% | 1016.7 hPa | 0 mm | - | 129 W/m² | - |
| 1787574466 | 23.89° C | 84% | 1016.6 hPa | 0 mm | - | 115 W/m² | - |
| 1787574166 | 23.33° C | 84% | 1016.8 hPa | 0 mm | - | 96 W/m² | - |
| 1787573865 | 22.78° C | 87% | 1016.6 hPa | 0 mm | - | 80 W/m² | - |
| 1787573564 | 21.67° C | 92% | 1016.7 hPa | 0 mm | - | 67 W/m² | - |
| 1787573261 | 21.11° C | 93% | 1016.7 hPa | 0 mm | - | 49 W/m² | - |
| 1787572957 | 21.11° C | 94% | 1016.7 hPa | 0 mm | - | 44 W/m² | - |
| 1787572653 | 21.11° C | 95% | 1016.8 hPa | 0 mm | - | 38 W/m² | - |
| 1787572347 | 20.56° C | 95% | 1016.6 hPa | 0 mm | - | 30 W/m² | - |
| 1787572042 | 20.56° C | 95% | 1016.7 hPa | 0 mm | - | 24 W/m² | - |
| 1787571741 | 20.56° C | 96% | 1016.7 hPa | 0 mm | - | 19 W/m² | - |
| 1787571440 | 20.56° C | 96% | 1016.6 hPa | 0 mm | - | 15 W/m² | - |
| 1787571130 | 20.56° C | 96% | 1016.7 hPa | 0 mm | - | 10 W/m² | - |
| 1787570826 | 20.56° C | 96% | 1016.6 hPa | 0 mm | - | 7 W/m² | - |
| 1787570521 | 20.56° C | 95% | 1016.5 hPa | 0 mm | - | 4 W/m² | - |
| 1787570218 | 20.56° C | 95% | 1016.6 hPa | 0 mm | - | 2 W/m² | - |
* Rain latest hour (hover to see other rain measurements)
** Current wind speed in m/s (hover to see current wind gust speed)